Terminal Aerodrome Forecast
Issued by NWS

Home | Current Version | Previous Version | Text Only | Print | Product List | Glossary Off
Versions: 1 2 3 4 5 6 7 8 9 10 11 12

000
FTUS43 KTOP 290500
TAFFOE
TAF
KFOE 290520Z 2906/3006 00000KT P6SM SKC
      TEMPO 2910/2914 3SM BR SKC
     FM291400 15006KT P6SM SCT060=

USA.gov is the U.S. government's official web portal to all federal, state and local government web resources and services.